ASN logo
Accident
Last updated: 20 October 2017
Statuts:Enquête Préliminaire
Date:vendredi 23 juin 2017
Heure:13:38
Type/Sous-type:Silhouette image of generic A321 model; specific model in this crash may look slightly different
Airbus A321-211 (WL)
Compagnie:Delta Air Lines
Immatriculation: N315DN
Numéro de série: 7436
Année de Fabrication: 2016-11-29 (7 months)
Moteurs: 2 CFMI CFM56-5B3/3
Equipage:victimes: 0 / à bord:
Passagers:victimes: 0 / à bord:
Total:victimes: 0 / à bord:
Dégats de l'appareil: Substantiels
Conséquences: Repaired
Lieu de l'accident:Atlanta-William B. Hartsfield International Airport, GA (ATL) (   Etats-Unis d'Amérique)
Phase de vol: A l'atterrissage (LDG)
Nature:Transport de Passagers Nat.
Aéroport de départ:Boston-Logan International Airport, MA (BOS/KBOS), Etats-Unis d'Amérique
Aéroport de destination:Atlanta-William B. Hartsfield International Airport, GA (ATL/KATL), Etats-Unis d'Amérique
Numéro de vol:DL800
Détails:
Delta Airlines flight DL800 from Boston-Logan International Airport, sustained substantial damage in a tail strike during landing at Atlanta-William B. Hartsfield International Airport.
The accident happened during landing on runway 26R. The aircraft taxied to the gate normally.

Sources:
» NTSB
» Flightradar24

METAR Weather report:
16:52 UTC / 12:52 local time:
KATL 231652Z 24011G21KT 10SM SCT035 SCT100 BKN150 BKN250 29/21 A3001 RMK AO2 SLP150 T02940211

17:52 UTC / 13:52 local time:
KATL 231752Z 19019G24KT 10SM FEW040 SCT090 BKN250 29/21 A2999 RMK AO2 SLP143 T02940206 10300 20233 58014


Photos

Add your photo of this accident or aircraft

Plan
Ce plan montre l'aéroport de départ ainsi que la supposée destination du vol. La ligne fixe reliant les deux aéroports n'est pas le plan de vol exact.
La distance entre Boston-Logan International Airport, MA et Atlanta-William B. Hartsfield International Airport, GA est de 1511 km (944 miles).

Les informations ci-dessus ne représentent pas l'opinion de la 'Flight Safety Foundation' ou de 'Aviation Safety Network' sur les causes de l'accident. Ces informations prélimimaires sont basées sur les faits tel qu'ils sont connus à ce jour.
languages: languages

Share